Time;durP1;ratioP1;P1;durP2;ratioP2;P2;SDS_P1;SDS_P2;PMS_P1;PMS_P2;Temp;Humidity;BMP_temperature;BMP_pressure;BME280_temperature;BME280_humidity;BME280_pressure;Samples;Min_cycle;Max_cycle;Signal;HPM_P1;HPM_P2
2022/10/07 00:01:33;;;;;;;;;14.75;14.25;;;;;14.01;55.86;102477.84;5029225;28;45695;-78
2022/10/07 00:03:58;;;;;;;;;21.50;18.25;;;;;14.04;56.17;102482.31;5013917;28;45380;-78
2022/10/07 00:06:24;;;;;;;;;17.00;15.25;;;;;13.97;56.15;102465.44;5019713;28;46119;-78
2022/10/07 00:08:52;;;;;;;;;22.00;20.25;;;;;14.01;56.04;102475.22;5019287;28;45496;-78
2022/10/07 00:11:21;;;;;;;;;20.00;16.75;;;;;13.93;56.27;102463.66;5028857;28;45340;-78
2022/10/07 00:13:49;;;;;;;;;18.25;17.50;;;;;13.99;56.59;102466.34;5019580;28;45411;-78
2022/10/07 00:16:23;;;;;;;;;20.00;19.00;;;;;13.94;56.28;102468.06;5017108;28;45597;-78
2022/10/07 00:18:50;;;;;;;;;19.50;16.25;;;;;13.89;56.66;102457.41;5014090;28;45349;-78
2022/10/07 00:21:17;;;;;;;;;21.75;18.75;;;;;13.92;56.65;102460.97;5034047;28;45763;-78
2022/10/07 00:23:44;;;;;;;;;20.00;17.50;;;;;13.91;56.33;102468.03;5019519;28;45526;-78
2022/10/07 00:26:13;;;;;;;;;22.25;19.25;;;;;13.89;56.96;102462.72;5034205;28;46127;-78
2022/10/07 00:28:38;;;;;;;;;22.75;20.00;;;;;13.83;56.71;102459.13;5019319;28;45418;-78
2022/10/07 00:31:11;;;;;;;;;23.50;16.75;;;;;13.85;57.17;102460.94;5018160;28;45275;-78
2022/10/07 00:33:38;;;;;;;;;21.75;17.75;;;;;13.83;57.30;102464.44;5018878;28;45460;-78
2022/10/07 00:36:08;;;;;;;;;20.00;18.25;;;;;13.74;57.20;102445.78;5018364;28;45430;-78
2022/10/07 00:38:34;;;;;;;;;20.00;19.00;;;;;13.73;57.12;102452.84;5017747;28;45507;-78
2022/10/07 00:40:59;;;;;;;;;19.75;18.50;;;;;13.72;56.78;102447.56;5019559;28;46513;-77
2022/10/07 00:43:30;;;;;;;;;21.00;18.75;;;;;13.67;57.46;102434.25;5017847;28;45486;-78
2022/10/07 00:46:04;;;;;;;;;20.00;15.00;;;;;13.73;57.02;102452.84;5017691;28;45943;-78
2022/10/07 00:48:31;;;;;;;;;17.25;16.25;;;;;13.66;57.18;102438.66;5003859;28;45364;-77
2022/10/07 00:50:59;;;;;;;;;20.50;18.25;;;;;13.66;56.86;102443.97;5014761;28;45406;-78
2022/10/07 00:53:29;;;;;;;;;17.50;17.00;;;;;13.70;56.83;102451.94;5018933;28;45514;-78
2022/10/07 00:56:00;;;;;;;;;19.25;19.25;;;;;13.60;56.90;102440.34;5018418;28;45292;-78
2022/10/07 00:58:27;;;;;;;;;21.25;19.50;;;;;13.61;57.54;102445.66;5015531;28;45316;-79
2022/10/07 01:00:53;;;;;;;;;24.25;21.50;;;;;13.49;57.19;102426.13;5015057;28;45263;-78
2022/10/07 01:03:18;;;;;;;;;11.25;8.50;;;;;13.56;57.19;102439.44;5017636;28;45665;-78
2022/10/07 01:05:44;;;;;;;;;23.00;21.25;;;;;13.54;57.11;102435.88;5033988;28;48416;-78
2022/10/07 01:08:09;;;;;;;;;19.75;16.25;;;;;13.45;57.71;102420.78;5019190;28;45348;-78
2022/10/07 01:10:45;;;;;;;;;18.75;17.50;;;;;13.51;57.44;102427.91;5016675;28;45472;-78
2022/10/07 01:13:28;;;;;;;;;18.00;16.00;;;;;13.48;57.68;102421.72;5011377;28;45335;-78
2022/10/07 01:16:09;;;;;;;;;16.50;16.00;;;;;13.49;58.01;102428.75;5016261;28;45694;-77
2022/10/07 01:18:52;;;;;;;;;17.75;15.00;;;;;13.46;57.75;102424.31;5010107;28;45431;-78
2022/10/07 01:21:51;;;;;;;;;19.00;16.00;;;;;13.41;58.14;102418.97;5010993;28;45356;-78
2022/10/07 01:24:48;;;;;;;;;15.25;15.25;;;;;13.39;57.88;102414.53;5021953;28;45241;-78
2022/10/07 01:27:20;;;;;;;;;15.25;14.00;;;;;13.31;57.94;102405.63;5012163;28;46599;-77
2022/10/07 01:29:54;;;;;;;;;17.00;16.25;;;;;13.30;58.41;102401.22;5022348;28;45418;-77
2022/10/07 01:32:25;;;;;;;;;13.00;10.75;;;;;13.35;58.34;102412.72;5022060;28;45237;-78
2022/10/07 01:34:54;;;;;;;;;16.75;13.75;;;;;13.35;58.16;102405.69;5022271;28;45442;-77
2022/10/07 01:37:23;;;;;;;;;11.75;11.75;;;;;13.25;58.50;102396.69;5021650;28;45451;-77
2022/10/07 01:39:55;;;;;;;;;15.75;13.75;;;;;13.26;58.52;102395.00;5028023;28;45355;-77
2022/10/07 01:42:21;;;;;;;;;13.75;13.00;;;;;13.32;58.10;102400.34;5020872;28;45288;-78
2022/10/07 01:44:52;;;;;;;;;12.50;10.25;;;;;13.24;57.96;102394.94;5022787;28;45296;-78
2022/10/07 01:47:18;;;;;;;;;9.00;8.75;;;;;13.25;58.32;102386.13;5022266;28;46309;-78
2022/10/07 01:49:43;;;;;;;;;10.75;10.50;;;;;13.20;58.52;102379.91;5020516;28;45605;-78
2022/10/07 01:52:32;;;;;;;;;12.00;10.75;;;;;13.23;58.29;102386.97;5021125;28;45446;-78
2022/10/07 01:54:57;;;;;;;;;13.00;12.00;;;;;13.23;58.28;102382.59;5021748;28;45229;-78
2022/10/07 01:57:46;;;;;;;;;10.75;10.25;;;;;13.17;58.41;102371.03;5021589;28;45220;-78
2022/10/07 02:00:13;;;;;;;;;11.75;11.75;;;;;13.21;58.34;102378.16;5018712;28;45406;-78
2022/10/07 02:03:05;;;;;;;;;12.25;12.25;;;;;13.18;58.23;102376.38;5025948;28;45438;-78
2022/10/07 02:05:49;;;;;;;;;13.50;13.00;;;;;13.16;58.82;102369.28;5018005;28;45477;-78
2022/10/07 02:08:49;;;;;;;;;12.25;11.00;;;;;13.17;58.86;102363.09;5007327;28;47014;-78
2022/10/07 02:11:19;;;;;;;;;11.25;11.25;;;;;13.15;58.79;102363.09;5020973;28;45291;-78
2022/10/07 02:14:10;;;;;;;;;9.50;9.50;;;;;13.07;58.90;102348.00;5021311;28;45524;-78
2022/10/07 02:16:47;;;;;;;;;13.25;11.50;;;;;13.06;58.96;102349.75;5007713;28;45443;-77
2022/10/07 02:19:34;;;;;;;;;11.50;10.00;;;;;13.01;58.99;102338.25;5011385;28;46432;-78
2022/10/07 02:22:02;;;;;;;;;9.75;8.50;;;;;12.97;58.74;102339.97;5012752;28;45505;-77
2022/10/07 02:24:32;;;;;;;;;10.25;10.25;;;;;12.96;58.67;102337.28;5021215;28;45461;-78
2022/10/07 02:27:02;;;;;;;;;14.75;11.25;;;;;12.93;58.51;102340.78;5021757;28;45470;-77
2022/10/07 02:29:31;;;;;;;;;13.75;12.00;;;;;12.88;58.79;102338.97;5024929;28;47162;-78
2022/10/07 02:32:01;;;;;;;;;12.50;11.00;;;;;12.79;58.97;102332.69;5020918;28;45195;-78
2022/10/07 02:34:29;;;;;;;;;14.50;14.50;;;;;12.75;59.05;102335.25;5021039;28;45508;-78
2022/10/07 02:37:01;;;;;;;;;14.50;11.00;;;;;12.72;58.95;102335.22;5019617;28;45589;-78
2022/10/07 02:39:28;;;;;;;;;11.00;10.75;;;;;12.66;59.48;102320.19;5021973;28;47757;-78
2022/10/07 02:41:53;;;;;;;;;12.25;11.50;;;;;12.69;59.39;102325.50;5021003;28;45452;-78
2022/10/07 02:44:24;;;;;;;;;10.75;10.00;;;;;12.69;59.69;102324.63;5020928;28;45339;-77
2022/10/07 02:47:07;;;;;;;;;10.50;10.00;;;;;12.63;59.67;102312.22;5020915;28;45427;-78
2022/10/07 02:49:37;;;;;;;;;11.75;10.00;;;;;12.66;59.47;102314.91;5008315;28;45837;-78
2022/10/07 02:52:16;;;;;;;;;15.50;9.50;;;;;12.66;59.90;102317.53;5019554;28;45419;-78
2022/10/07 02:54:53;;;;;;;;;13.25;10.25;;;;;12.65;60.04;102315.78;5019458;28;45312;-78
2022/10/07 02:57:21;;;;;;;;;8.75;8.75;;;;;12.64;59.65;102318.38;5020330;28;45327;-79
2022/10/07 02:59:49;;;;;;;;;11.50;10.75;;;;;12.61;59.78;102302.50;5020603;28;46589;-78
2022/10/07 03:02:20;;;;;;;;;8.00;7.25;;;;;12.58;59.69;102312.16;5020338;28;45349;-78
2022/10/07 03:04:47;;;;;;;;;10.50;10.50;;;;;12.52;59.99;102300.63;5032556;28;45400;-78
2022/10/07 03:07:12;;;;;;;;;9.00;7.75;;;;;12.47;59.68;102294.41;5019304;28;45475;-78
2022/10/07 03:09:39;;;;;;;;;12.50;9.75;;;;;12.47;59.88;102302.31;5020459;28;45510;-78
2022/10/07 03:12:06;;;;;;;;;13.50;10.00;;;;;12.45;59.91;102298.78;5022417;28;45541;-78
2022/10/07 03:14:33;;;;;;;;;9.50;9.50;;;;;12.49;60.01;102308.53;5020439;28;45331;-78
2022/10/07 03:16:59;;;;;;;;;15.25;12.50;;;;;12.45;60.09;102297.00;5015222;28;45478;-79
2022/10/07 03:19:24;;;;;;;;;10.50;9.25;;;;;12.47;60.26;102297.03;5010731;28;47859;-78
2022/10/07 03:21:49;;;;;;;;;11.75;11.75;;;;;12.35;60.15;102280.16;5011370;28;45466;-78
2022/10/07 03:24:15;;;;;;;;;14.00;12.50;;;;;12.38;60.05;102295.16;5020555;28;45783;-79
2022/10/07 03:26:41;;;;;;;;;9.75;9.75;;;;;12.41;59.94;102297.84;5018824;28;45470;-78
2022/10/07 03:29:09;;;;;;;;;9.75;9.25;;;;;12.35;60.07;102282.81;5020493;28;45721;-78
2022/10/07 03:31:35;;;;;;;;;10.75;8.50;;;;;12.39;60.16;102289.00;5035322;28;45375;-78
2022/10/07 03:34:00;;;;;;;;;16.00;10.00;;;;;12.33;60.29;102279.25;5015598;28;45380;-78
2022/10/07 03:36:26;;;;;;;;;8.75;8.50;;;;;12.38;60.43;102283.72;5018984;28;45618;-78
2022/10/07 03:38:51;;;;;;;;;12.00;12.00;;;;;12.37;60.27;102277.53;5018683;28;46525;-78
2022/10/07 03:41:18;;;;;;;;;10.50;10.00;;;;;12.29;60.42;102272.13;5018472;28;45633;-78
2022/10/07 03:43:43;;;;;;;;;9.00;8.25;;;;;12.32;60.63;102285.41;5017889;28;45388;-78
2022/10/07 03:46:09;;;;;;;;;12.00;9.50;;;;;12.27;60.45;102273.91;5018262;28;45661;-78
2022/10/07 03:48:34;;;;;;;;;11.75;10.00;;;;;12.26;60.65;102276.50;5018628;28;46948;-78
2022/10/07 03:50:59;;;;;;;;;10.75;10.00;;;;;12.25;60.59;102277.38;5020111;28;45202;-79
2022/10/07 03:53:27;;;;;;;;;7.75;7.00;;;;;12.21;60.70;102272.91;5018842;28;45464;-78
2022/10/07 03:55:53;;;;;;;;;13.00;11.25;;;;;12.25;60.87;102285.31;5019443;28;45403;-78
2022/10/07 03:58:18;;;;;;;;;12.75;10.75;;;;;12.23;60.71;102287.91;5019675;28;45434;-79
2022/10/07 04:00:44;;;;;;;;;15.00;11.75;;;;;12.20;60.36;102272.03;5019804;28;45293;-79
2022/10/07 04:03:09;;;;;;;;;13.75;12.00;;;;;12.13;60.72;102263.16;5020002;28;45443;-78
2022/10/07 04:05:35;;;;;;;;;11.00;9.50;;;;;12.15;60.78;102265.78;5018531;28;45593;-79
2022/10/07 04:08:01;;;;;;;;;11.00;8.25;;;;;12.11;60.55;102254.31;5019795;28;45934;-78
2022/10/07 04:10:27;;;;;;;;;11.75;10.75;;;;;12.10;60.26;102259.56;5018822;28;45321;-79
2022/10/07 04:12:52;;;;;;;;;12.75;11.00;;;;;12.07;60.52;102257.75;5019451;28;45237;-78
2022/10/07 04:15:19;;;;;;;;;14.75;11.50;;;;;12.05;60.44;102253.31;5018592;28;45426;-78
2022/10/07 04:17:45;;;;;;;;;14.25;12.00;;;;;12.09;60.57;102261.31;5017900;28;47768;-78
2022/10/07 04:20:13;;;;;;;;;11.25;9.50;;;;;12.00;60.76;102247.06;5017314;28;45451;-79
2022/10/07 04:22:38;;;;;;;;;15.00;13.50;;;;;12.07;60.57;102260.41;5011632;28;45359;-78
2022/10/07 04:27:52;;;;;;;;;15.50;14.50;;;;;11.97;60.79;102250.56;5019267;28;45800;-76
2022/10/07 04:30:18;;;;;;;;;11.75;11.75;;;;;11.96;61.02;102253.19;5031360;28;45712;-77
2022/10/07 04:32:43;;;;;;;;;11.75;9.25;;;;;12.01;60.71;102255.03;5014223;28;45260;-77
2022/10/07 04:35:09;;;;;;;;;11.25;9.00;;;;;11.99;60.79;102263.78;5034560;28;45542;-77
2022/10/07 04:37:34;;;;;;;;;11.00;11.00;;;;;11.97;60.67;102247.03;5017891;28;46113;-77
2022/10/07 04:40:00;;;;;;;;;9.50;8.50;;;;;11.98;60.33;102254.13;5019394;28;45305;-78
2022/10/07 04:45:09;;;;;;;;;13.25;10.25;;;;;11.95;60.28;102243.47;5019896;28;45198;-78
2022/10/07 04:47:34;;;;;;;;;8.00;8.00;;;;;11.89;60.25;102239.91;5018712;28;46103;-78
2022/10/07 04:50:01;;;;;;;;;11.25;9.50;;;;;11.89;60.43;102241.66;5019382;28;45435;-78
2022/10/07 04:52:26;;;;;;;;;6.00;6.00;;;;;11.94;60.45;102250.53;5019763;28;45459;-78
2022/10/07 04:54:52;;;;;;;;;7.50;7.25;;;;;11.87;60.58;102244.28;5020990;28;45359;-78
2022/10/07 04:57:17;;;;;;;;;11.25;6.75;;;;;11.87;60.70;102236.38;5022252;28;46041;-78
2022/10/07 04:59:43;;;;;;;;;10.00;7.00;;;;;11.90;60.85;102238.16;5011496;28;45250;-78
2022/10/07 05:02:08;;;;;;;;;7.75;7.75;;;;;11.90;60.84;102233.75;5014892;28;45450;-78
2022/10/07 05:04:33;;;;;;;;;14.75;10.50;;;;;11.96;61.01;102247.91;5012812;28;45437;-78
2022/10/07 05:06:59;;;;;;;;;8.50;8.50;;;;;11.88;61.35;102229.31;5022366;28;45478;-78
2022/10/07 05:09:24;;;;;;;;;10.00;7.75;;;;;11.92;60.79;102239.03;5021526;28;45320;-78
2022/10/07 05:11:54;;;;;;;;;10.75;7.75;;;;;11.95;60.81;102246.13;5021222;28;46400;-78
2022/10/07 05:14:20;;;;;;;;;9.00;9.00;;;;;11.95;60.81;102240.84;5022683;28;45502;-78
2022/10/07 05:16:49;;;;;;;;;15.00;9.25;;;;;11.85;60.95;102231.88;5018809;28;45346;-78
2022/10/07 05:19:15;;;;;;;;;14.00;10.25;;;;;11.87;60.94;102232.84;5021382;28;45396;-78
2022/10/07 05:21:41;;;;;;;;;9.00;9.00;;;;;11.94;60.92;102247.88;5012263;28;45325;-78
2022/10/07 05:24:06;;;;;;;;;6.75;6.00;;;;;11.83;61.14;102225.69;5022237;28;45466;-78
2022/10/07 05:26:32;;;;;;;;;7.50;5.75;;;;;11.87;61.08;102236.38;5022017;28;45973;-78
2022/10/07 05:28:57;;;;;;;;;12.00;10.75;;;;;11.85;61.14;102239.81;5020913;28;45625;-78
2022/10/07 05:31:24;;;;;;;;;13.00;11.00;;;;;11.79;61.25;102230.06;5020842;28;45296;-78
2022/10/07 05:33:50;;;;;;;;;10.25;8.75;;;;;11.86;61.35;102241.59;5022336;28;45367;-78
2022/10/07 05:36:15;;;;;;;;;11.00;10.25;;;;;11.84;61.32;102235.38;5021888;28;45590;-78
2022/10/07 05:38:40;;;;;;;;;13.25;9.50;;;;;11.85;61.24;102239.81;5020785;28;45927;-79
2022/10/07 05:41:09;;;;;;;;;5.00;5.00;;;;;11.80;61.45;102228.28;5022479;28;45715;-79
2022/10/07 05:43:36;;;;;;;;;10.25;10.25;;;;;11.76;61.87;102224.72;5021933;28;45576;-79
2022/10/07 05:46:16;;;;;;;;;13.25;13.25;;;;;11.76;61.37;102221.19;5020140;28;46743;-79
2022/10/07 05:48:50;;;;;;;;;15.25;13.25;;;;;11.74;61.56;102221.16;5026562;28;45375;-77
2022/10/07 05:51:21;;;;;;;;;9.00;8.00;;;;;11.77;61.96;102223.84;5020020;28;45470;-78
2022/10/07 05:53:47;;;;;;;;;15.25;14.00;;;;;11.78;62.08;102224.72;5021541;28;45414;-78
2022/10/07 05:56:15;;;;;;;;;14.50;13.25;;;;;11.75;62.02;102219.41;5019909;28;47139;-78
2022/10/07 05:58:41;;;;;;;;;17.50;13.75;;;;;11.83;62.24;102230.97;5021481;28;45438;-80
2022/10/07 06:01:16;;;;;;;;;13.75;13.50;;;;;11.80;62.13;102226.53;5020013;28;45466;-78
2022/10/07 06:03:43;;;;;;;;;15.00;13.50;;;;;11.75;61.79;102222.06;5020160;28;45387;-78
2022/10/07 06:06:08;;;;;;;;;12.00;11.00;;;;;11.77;61.99;102221.22;5020637;28;45455;-77
2022/10/07 06:08:35;;;;;;;;;10.75;9.25;;;;;11.77;62.09;102225.59;5019944;28;45414;-77
2022/10/07 06:13:59;;;;;;;;;9.75;9.00;;;;;11.76;62.17;102224.72;5008392;28;45314;-77
2022/10/07 06:16:25;;;;;;;;;14.00;12.50;;;;;11.75;62.37;102222.06;5018415;28;46016;-78
2022/10/07 06:18:51;;;;;;;;;14.75;11.75;;;;;11.74;62.13;102223.81;5007053;28;45456;-77
2022/10/07 06:21:18;;;;;;;;;10.75;9.50;;;;;11.73;62.29;102231.69;5012197;28;45331;-78
2022/10/07 06:23:48;;;;;;;;;15.50;13.00;;;;;11.73;62.08;102227.28;5021056;28;45542;-78
2022/10/07 06:26:13;;;;;;;;;10.25;9.50;;;;;11.77;62.11;102228.25;5020618;28;45592;-77
2022/10/07 06:28:40;;;;;;;;;12.25;11.00;;;;;11.74;61.88;102223.81;5019700;28;45264;-79
2022/10/07 06:31:11;;;;;;;;;12.25;12.25;;;;;11.71;61.82;102223.78;5019760;28;45434;-77
2022/10/07 06:33:37;;;;;;;;;14.75;14.75;;;;;11.67;61.88;102217.53;5032977;28;45354;-76
2022/10/07 06:36:04;;;;;;;;;15.00;14.00;;;;;11.76;62.21;102232.66;5036003;28;47501;-77
2022/10/07 06:38:30;;;;;;;;;15.00;13.75;;;;;11.80;62.17;102225.66;5020869;28;45233;-77
2022/10/07 06:40:57;;;;;;;;;13.00;10.75;;;;;11.82;62.25;102240.66;5020767;28;45337;-77
2022/10/07 06:43:24;;;;;;;;;17.25;14.50;;;;;11.83;62.20;102234.50;5021139;28;45421;-77
2022/10/07 06:45:50;;;;;;;;;16.00;14.25;;;;;11.77;62.22;102223.84;5018942;28;46027;-79
2022/10/07 06:48:15;;;;;;;;;18.50;15.75;;;;;11.78;62.31;102222.97;5028850;28;46028;-81
2022/10/07 06:50:49;;;;;;;;;17.75;16.25;;;;;11.82;62.41;102224.81;5020526;28;45309;-80
2022/10/07 06:53:14;;;;;;;;;17.75;15.00;;;;;11.83;62.57;102215.13;5032873;28;45916;-81
2022/10/07 06:55:40;;;;;;;;;18.00;17.00;;;;;11.89;62.57;102217.88;5018124;28;46173;-81
2022/10/07 06:58:05;;;;;;;;;17.25;16.00;;;;;12.00;62.70;102241.81;5020847;28;45236;-80
2022/10/07 07:00:33;;;;;;;;;18.50;16.50;;;;;11.99;62.67;102226.84;5021243;28;45264;-84
2022/10/07 07:03:00;;;;;;;;;16.00;14.25;;;;;11.93;62.66;102211.81;5020596;28;45417;-82
2022/10/07 07:05:32;;;;;;;;;18.50;15.50;;;;;12.09;62.41;102234.91;5018968;28;46355;-83
2022/10/07 07:07:57;;;;;;;;;21.50;19.25;;;;;12.11;62.51;102227.91;5005725;28;45213;-82
2022/10/07 07:10:23;;;;;;;;;23.50;21.00;;;;;12.18;62.61;102239.44;5007466;28;45266;-82
2022/10/07 07:12:51;;;;;;;;;23.00;17.00;;;;;12.16;62.57;102235.88;5020258;28;45377;-81
2022/10/07 07:15:16;;;;;;;;;20.25;19.50;;;;;12.19;62.49;102235.03;5007633;28;45559;-83
2022/10/07 07:17:42;;;;;;;;;27.50;22.25;;;;;12.20;62.58;102232.41;5007721;28;45472;-83
2022/10/07 07:20:07;;;;;;;;;64.25;50.50;;;;;12.29;62.56;102229.00;5016250;28;45423;-82
2022/10/07 07:22:33;;;;;;;;;36.00;31.25;;;;;12.35;62.39;102237.03;5009886;28;45363;-82
2022/10/07 07:24:58;;;;;;;;;29.25;23.25;;;;;12.31;62.44;102212.31;5034844;28;46833;-84
2022/10/07 07:27:23;;;;;;;;;35.50;32.00;;;;;12.43;62.18;102230.09;5019828;28;45413;-81
2022/10/07 07:29:49;;;;;;;;;34.00;29.50;;;;;12.41;62.09;102223.91;5019538;28;45440;-83
2022/10/07 07:32:16;;;;;;;;;30.00;28.25;;;;;12.44;62.54;102210.72;5027310;28;45494;-84
2022/10/07 07:34:41;;;;;;;;;28.00;25.50;;;;;12.52;62.28;102214.34;5018180;28;47115;-83
2022/10/07 07:37:07;;;;;;;;;26.00;23.00;;;;;12.61;62.23;102224.13;5018415;28;45377;-83
2022/10/07 07:39:32;;;;;;;;;28.75;26.25;;;;;12.62;62.40;102209.19;5019792;28;45291;-79
2022/10/07 07:41:57;;;;;;;;;25.25;22.75;;;;;12.69;62.32;102221.56;5019316;28;45245;-79
2022/10/07 07:44:23;;;;;;;;;27.25;25.00;;;;;12.72;62.20;102218.97;5017922;28;47448;-79
2022/10/07 07:46:52;;;;;;;;;36.75;32.25;;;;;12.78;62.09;102216.41;5019378;28;45497;-79
2022/10/07 07:49:19;;;;;;;;;32.75;27.00;;;;;12.84;62.09;102218.22;5018063;28;45408;-78
2022/10/07 07:51:45;;;;;;;;;24.50;22.75;;;;;12.88;62.17;102212.09;5019518;28;45415;-77
2022/10/07 07:54:12;;;;;;;;;34.00;30.25;;;;;12.92;61.84;102206.84;5017639;28;46861;-78
2022/10/07 07:56:37;;;;;;;;;31.75;30.25;;;;;13.07;62.14;102223.72;5019405;28;45348;-78
2022/10/07 07:59:11;;;;;;;;;29.50;28.00;;;;;13.07;62.08;102213.16;5019496;28;45261;-78
2022/10/07 08:01:37;;;;;;;;;30.00;27.75;;;;;13.10;61.96;102202.63;5017409;28;45257;-79
2022/10/07 08:04:03;;;;;;;;;30.75;27.00;;;;;13.16;62.02;102203.56;5014496;28;46765;-80
2022/10/07 08:06:30;;;;;;;;;27.00;24.50;;;;;13.27;62.24;102210.75;5011920;28;45281;-79
2022/10/07 08:08:57;;;;;;;;;31.00;26.00;;;;;13.35;61.88;102214.34;5019760;28;45399;-80
2022/10/07 08:11:22;;;;;;;;;34.50;29.00;;;;;13.38;61.67;102206.44;5014091;28;45566;-79
2022/10/07 08:13:48;;;;;;;;;29.25;29.25;;;;;13.49;61.44;102206.50;5016291;28;45888;-80
2022/10/07 08:16:18;;;;;;;;;31.25;29.00;;;;;13.56;61.10;102208.34;5032419;28;45628;-78
2022/10/07 08:18:47;;;;;;;;;29.50;28.50;;;;;13.66;61.55;102210.19;5003290;28;45252;-78
2022/10/07 08:21:14;;;;;;;;;30.50;28.00;;;;;13.74;60.99;102202.28;5016020;28;45660;-78
2022/10/07 08:23:40;;;;;;;;;31.00;27.25;;;;;13.78;61.03;102199.66;5016020;28;48010;-79
2022/10/07 08:26:07;;;;;;;;;28.25;28.00;;;;;13.89;61.13;102203.25;5012057;28;45632;-79
2022/10/07 08:28:33;;;;;;;;;28.75;26.75;;;;;13.94;61.06;102199.75;5016705;28;45435;-79
2022/10/07 08:31:07;;;;;;;;;34.00;31.00;;;;;14.08;60.69;102203.38;5019792;28;45434;-79
2022/10/07 08:33:35;;;;;;;;;30.25;28.25;;;;;14.12;60.66;102186.63;5020063;28;45515;-79
2022/10/07 08:36:03;;;;;;;;;31.50;29.00;;;;;14.21;60.51;102188.44;5020858;28;45931;-79
2022/10/07 08:38:34;;;;;;;;;28.75;26.50;;;;;14.30;60.16;102173.47;5019786;28;45497;-78
2022/10/07 08:41:05;;;;;;;;;25.00;25.00;;;;;14.46;60.36;102192.97;5019633;28;45428;-78
2022/10/07 08:43:32;;;;;;;;;40.50;33.50;;;;;14.51;60.17;102183.25;5020888;28;45346;-79
2022/10/07 08:45:59;;;;;;;;;26.25;25.25;;;;;14.62;59.57;102169.16;5020253;28;45444;-77
2022/10/07 08:48:31;;;;;;;;;30.75;26.50;;;;;14.73;59.65;102170.97;5020914;28;45574;-79
2022/10/07 08:51:19;;;;;;;;;28.25;26.50;;;;;14.85;59.23;102174.53;5019190;28;45345;-77
2022/10/07 08:53:53;;;;;;;;;31.75;28.75;;;;;14.92;59.00;102166.59;5019196;28;47913;-77
2022/10/07 08:56:22;;;;;;;;;31.50;27.50;;;;;15.04;58.87;102167.47;5009761;28;45431;-77
2022/10/07 08:59:00;;;;;;;;;34.50;29.50;;;;;15.11;58.43;102167.47;5021283;28;45453;-77
2022/10/07 09:01:34;;;;;;;;;29.00;27.50;;;;;15.19;58.44;102162.19;5020661;28;45345;-78
2022/10/07 09:04:03;;;;;;;;;28.50;26.00;;;;;15.29;57.90;102155.06;5012842;28;47933;-79
2022/10/07 09:06:34;;;;;;;;;29.00;26.75;;;;;15.34;57.91;102151.56;5019746;28;45383;-77
2022/10/07 09:09:10;;;;;;;;;33.00;30.75;;;;;15.47;57.62;102154.19;5035284;28;45378;-78
2022/10/07 09:11:39;;;;;;;;;29.00;27.50;;;;;15.59;57.29;102151.53;5018804;28;45416;-77
2022/10/07 09:14:28;;;;;;;;;29.25;25.75;;;;;15.70;57.03;102149.75;5021170;28;47350;-78
2022/10/07 09:16:59;;;;;;;;;26.00;23.75;;;;;15.79;56.78;102155.03;5000979;28;45609;-79
2022/10/07 09:19:32;;;;;;;;;24.00;20.50;;;;;15.88;56.48;102147.06;5009824;28;45417;-78
2022/10/07 09:22:11;;;;;;;;;25.00;24.50;;;;;15.97;56.54;102140.81;5016308;28;45493;-78
2022/10/07 09:24:37;;;;;;;;;21.25;21.25;;;;;16.05;56.24;102127.50;5019236;28;47969;-78
2022/10/07 09:27:12;;;;;;;;;23.75;21.00;;;;;16.16;56.12;102127.47;5016798;28;45626;-78
2022/10/07 09:29:37;;;;;;;;;19.50;17.00;;;;;16.23;55.44;102123.91;5016081;28;45408;-78
2022/10/07 09:32:03;;;;;;;;;17.00;15.75;;;;;16.29;55.31;102118.53;5018636;28;45359;-78
2022/10/07 09:34:30;;;;;;;;;17.25;16.00;;;;;16.37;54.73;102118.50;5019903;28;45516;-79
2022/10/07 09:37:18;;;;;;;;;18.50;16.50;;;;;16.46;54.86;102118.44;5034980;28;45484;-79
2022/10/07 09:39:46;;;;;;;;;13.00;12.25;;;;;16.54;54.50;102116.63;5019798;28;45435;-79
2022/10/07 09:42:34;;;;;;;;;12.25;11.25;;;;;16.63;54.24;102111.25;5019059;28;45518;-81
2022/10/07 09:45:04;;;;;;;;;8.50;8.25;;;;;16.69;53.61;102113.00;5028085;28;47381;-79
2022/10/07 09:47:36;;;;;;;;;8.75;7.75;;;;;16.81;53.54;102114.69;5017174;28;45317;-78
2022/10/07 09:50:02;;;;;;;;;8.50;7.25;;;;;16.90;53.30;102104.88;5018551;28;45221;-79
2022/10/07 09:52:30;;;;;;;;;7.50;6.00;;;;;16.99;53.09;102106.56;5002593;28;45698;-81
2022/10/07 09:55:16;;;;;;;;;5.50;5.50;;;;;17.04;52.49;102091.44;5009989;28;47536;-78
2022/10/07 09:57:42;;;;;;;;;9.75;7.25;;;;;17.18;52.42;102092.19;5014717;28;45339;-78
2022/10/07 10:00:11;;;;;;;;;6.25;6.25;;;;;17.29;52.19;102092.09;5016301;28;45606;-78
2022/10/07 10:05:29;;;;;;;;;5.75;4.50;;;;;17.60;51.51;102075.81;5019992;28;46087;-75
2022/10/07 10:08:09;;;;;;;;;8.00;7.75;;;;;17.72;51.04;102080.09;5012536;28;45727;-75
2022/10/07 10:10:35;;;;;;;;;6.25;4.50;;;;;17.83;50.65;102070.25;5017149;28;45562;-75
2022/10/07 10:13:05;;;;;;;;;5.25;4.25;;;;;17.93;50.07;102063.00;5016726;28;46127;-75
2022/10/07 10:15:41;;;;;;;;;5.67;4.33;;;;;18.05;49.68;102065.50;5017512;28;47095;-77
2022/10/07 10:18:32;;;;;;;;;5.33;3.33;;;;;18.14;49.58;102065.38;5009029;28;45399;-76
2022/10/07 10:21:17;;;;;;;;;8.25;6.25;;;;;18.24;49.33;102055.47;5017583;28;45521;-76
2022/10/07 10:23:51;;;;;;;;;7.00;6.00;;;;;18.35;48.60;102063.31;5005157;28;45467;-75
2022/10/07 10:26:49;;;;;;;;;6.25;5.25;;;;;18.46;48.17;102056.03;5017769;28;45692;-75
2022/10/07 10:29:34;;;;;;;;;4.67;4.67;;;;;18.58;48.24;102053.19;5016274;28;45385;-77
2022/10/07 10:32:00;;;;;;;;;7.00;5.33;;;;;18.70;47.88;102044.94;5007809;28;45396;-78
2022/10/07 10:34:37;;;;;;;;;6.00;5.33;;;;;18.80;47.67;102048.41;5017430;28;45591;-78
2022/10/07 10:37:22;;;;;;;;;3.00;2.00;;;;;18.93;47.11;102046.41;5020550;28;47376;-80
2022/10/07 10:40:24;;;;;;;;;4.00;4.00;;;;;19.04;46.37;102036.41;5018266;28;45328;-77
2022/10/07 10:42:57;;;;;;;;;4.00;2.33;;;;;19.14;46.61;102035.34;5017232;28;45556;-77
2022/10/07 10:45:46;;;;;;;;;6.67;3.00;;;;;19.27;45.90;102024.41;5018615;28;45534;-77
2022/10/07 10:48:21;;;;;;;;;14.25;12.25;;;;;19.43;45.96;102027.66;5023288;28;46836;-78
2022/10/07 10:51:00;;;;;;;;;69.50;55.25;;;;;19.60;46.07;102022.88;5018759;28;45338;-77
2022/10/07 10:53:58;;;;;;;;;92.33;90.33;;;;;19.80;45.37;102022.47;5032145;28;45505;-83
2022/10/07 10:56:39;;;;;;;;;5.33;3.67;;;;;20.03;45.02;102016.63;5011359;28;45410;-81
2022/10/07 10:59:14;;;;;;;;;4.00;3.33;;;;;20.26;44.34;102011.63;5016409;28;46610;-84
2022/10/07 11:02:30;;;;;;;;;;;;;;;;;;;;;
2022/10/07 11:06:01;;;;;;;;;6.33;3.67;;;;;20.76;43.15;102011.28;5017712;28;68679;-84
2022/10/07 11:08:44;;;;;;;;;4.33;4.33;;;;;20.96;41.79;101994.72;5013625;28;45846;-83
2022/10/07 11:15:03;;;;;;;;;;;;;;;;;;;;;
2022/10/07 11:17:36;;;;;;;;;3.00;3.00;;;;;21.49;41.58;101987.00;4988224;28;67516;-81
2022/10/07 11:21:13;;;;;;;;;;;;;;;;;;;;;
2022/10/07 11:27:16;;;;;;;;;2.00;2.00;;;;;22.26;40.13;101963.19;5018581;28;45395;-82
2022/10/07 11:29:53;;;;;;;;;3.00;1.00;;;;;22.49;39.53;101967.78;5019030;28;45372;-81
2022/10/07 11:32:41;;;;;;;;;2.67;2.67;;;;;22.81;39.58;101965.81;5018647;28;45582;-83
2022/10/07 11:36:13;;;;;;;;;3.33;2.33;;;;;23.14;38.45;101965.53;5019898;28;47411;-83
2022/10/07 11:39:32;;;;;;;;;;;;;;;;;;;;;
2022/10/07 11:46:53;;;;;;;;;;;;;;;;;;;;;
2022/10/07 11:49:40;;;;;;;;;3.00;3.00;;;;;29.27;32.30;101944.16;4965359;28;46406;-82
2022/10/07 11:52:25;;;;;;;;;;;;;;;;;;;;;
2022/10/07 11:55:08;;;;;;;;;4.33;4.00;;;;;31.33;29.70;101925.69;5012991;28;68725;-83
2022/10/07 11:57:38;;;;;;;;;2.67;2.33;;;;;31.91;28.37;101926.00;5005238;28;45415;-81
2022/10/07 12:00:25;;;;;;;;;2.67;2.67;;;;;32.67;27.22;101913.84;5013562;28;47143;-85
2022/10/07 12:02:53;;;;;;;;;0.67;0.67;;;;;33.37;26.88;101910.03;5017953;28;45435;-80
2022/10/07 12:05:54;;;;;;;;;2.33;1.67;;;;;34.04;25.50;101907.16;5015280;28;45741;-80